sensor_id;sensor_type;location;lat;lon;timestamp;pressure;altitude;pressure_sealevel;temperature;humidity
5691;BME280;2870;42.680;23.364;2023-04-27T00:00:28;94803.16;;;9.03;58.24
5691;BME280;2870;42.680;23.364;2023-04-27T00:02:55;94803.88;;;9.19;58.56
5691;BME280;2870;42.680;23.364;2023-04-27T00:05:24;94792.66;;;8.88;57.83
5691;BME280;2870;42.680;23.364;2023-04-27T00:07:51;94803.13;;;8.95;57.57
5691;BME280;2870;42.680;23.364;2023-04-27T00:10:18;94805.19;;;9.18;58.02
5691;BME280;2870;42.680;23.364;2023-04-27T00:12:45;94803.91;;;9.03;57.69
5691;BME280;2870;42.680;23.364;2023-04-27T00:15:11;94800.13;;;8.93;58.25
5691;BME280;2870;42.680;23.364;2023-04-27T00:17:38;94810.94;;;8.89;58.57
5691;BME280;2870;42.680;23.364;2023-04-27T00:20:06;94812.41;;;8.75;58.74
5691;BME280;2870;42.680;23.364;2023-04-27T00:22:37;94814.13;;;8.86;59.43
5691;BME280;2870;42.680;23.364;2023-04-27T00:25:04;94810.28;;;9.42;57.54
5691;BME280;2870;42.680;23.364;2023-04-27T00:27:32;94804.94;;;8.70;58.09
5691;BME280;2870;42.680;23.364;2023-04-27T00:29:59;94810.03;;;8.94;58.82
5691;BME280;2870;42.680;23.364;2023-04-27T00:32:25;94804.16;;;8.54;58.35
5691;BME280;2870;42.680;23.364;2023-04-27T00:34:52;94806.38;;;8.48;59.38
5691;BME280;2870;42.680;23.364;2023-04-27T00:37:19;94809.22;;;8.71;59.64
5691;BME280;2870;42.680;23.364;2023-04-27T00:39:47;94802.16;;;8.26;59.29
5691;BME280;2870;42.680;23.364;2023-04-27T00:42:14;94817.22;;;8.67;59.35
5691;BME280;2870;42.680;23.364;2023-04-27T00:44:44;94817.97;;;8.60;59.27
5691;BME280;2870;42.680;23.364;2023-04-27T00:47:10;94820.34;;;8.48;59.37
5691;BME280;2870;42.680;23.364;2023-04-27T00:49:38;94818.00;;;8.75;60.81
5691;BME280;2870;42.680;23.364;2023-04-27T00:52:05;94818.41;;;8.94;59.13
5691;BME280;2870;42.680;23.364;2023-04-27T00:54:32;94818.88;;;8.55;59.30
5691;BME280;2870;42.680;23.364;2023-04-27T00:57:01;94808.53;;;8.34;60.00
5691;BME280;2870;42.680;23.364;2023-04-27T00:59:29;94820.03;;;8.23;60.52
5691;BME280;2870;42.680;23.364;2023-04-27T01:01:55;94822.50;;;8.34;61.19
5691;BME280;2870;42.680;23.364;2023-04-27T01:04:22;94826.72;;;8.20;60.93
5691;BME280;2870;42.680;23.364;2023-04-27T01:06:50;94831.97;;;8.23;61.09
5691;BME280;2870;42.680;23.364;2023-04-27T01:09:17;94826.59;;;7.97;61.31
5691;BME280;2870;42.680;23.364;2023-04-27T01:11:44;94827.06;;;8.16;61.27
5691;BME280;2870;42.680;23.364;2023-04-27T01:14:13;94831.88;;;8.08;61.27
5691;BME280;2870;42.680;23.364;2023-04-27T01:16:39;94834.03;;;7.94;61.91
5691;BME280;2870;42.680;23.364;2023-04-27T01:19:07;94830.28;;;7.92;61.51
5691;BME280;2870;42.680;23.364;2023-04-27T01:21:34;94831.09;;;8.00;63.03
5691;BME280;2870;42.680;23.364;2023-04-27T01:24:03;94825.41;;;8.21;62.55
5691;BME280;2870;42.680;23.364;2023-04-27T01:26:31;94832.06;;;8.10;63.29
5691;BME280;2870;42.680;23.364;2023-04-27T01:28:58;94837.31;;;8.14;62.21
5691;BME280;2870;42.680;23.364;2023-04-27T01:31:25;94832.00;;;7.95;62.46
5691;BME280;2870;42.680;23.364;2023-04-27T01:33:52;94833.75;;;7.77;62.74
5691;BME280;2870;42.680;23.364;2023-04-27T01:36:18;94837.22;;;7.70;62.90
5691;BME280;2870;42.680;23.364;2023-04-27T01:38:46;94842.16;;;7.85;62.15
5691;BME280;2870;42.680;23.364;2023-04-27T01:41:14;94840.00;;;7.98;62.55
5691;BME280;2870;42.680;23.364;2023-04-27T01:43:40;94821.25;;;8.07;63.86
5691;BME280;2870;42.680;23.364;2023-04-27T01:46:09;94849.28;;;7.93;62.47
5691;BME280;2870;42.680;23.364;2023-04-27T01:48:36;94841.50;;;7.71;62.48
5691;BME280;2870;42.680;23.364;2023-04-27T01:51:04;94815.88;;;7.52;62.30
5691;BME280;2870;42.680;23.364;2023-04-27T01:53:31;94844.28;;;7.71;63.37
5691;BME280;2870;42.680;23.364;2023-04-27T01:55:58;94844.06;;;7.90;63.49
5691;BME280;2870;42.680;23.364;2023-04-27T01:58:26;94851.91;;;7.70;62.26
5691;BME280;2870;42.680;23.364;2023-04-27T02:00:53;94845.69;;;7.57;63.79
5691;BME280;2870;42.680;23.364;2023-04-27T02:03:20;94841.03;;;7.88;63.99
5691;BME280;2870;42.680;23.364;2023-04-27T02:05:47;94822.91;;;7.45;62.59
5691;BME280;2870;42.680;23.364;2023-04-27T02:08:14;94836.88;;;7.74;62.74
5691;BME280;2870;42.680;23.364;2023-04-27T02:10:41;94848.34;;;7.62;62.79
5691;BME280;2870;42.680;23.364;2023-04-27T02:13:08;94850.59;;;7.43;62.34
5691;BME280;2870;42.680;23.364;2023-04-27T02:15:36;94847.94;;;7.58;63.06
5691;BME280;2870;42.680;23.364;2023-04-27T02:18:03;94850.97;;;7.68;64.02
5691;BME280;2870;42.680;23.364;2023-04-27T02:20:30;94861.59;;;7.49;62.22
5691;BME280;2870;42.680;23.364;2023-04-27T02:22:58;94861.09;;;7.29;62.70
5691;BME280;2870;42.680;23.364;2023-04-27T02:25:25;94861.13;;;7.37;63.23
5691;BME280;2870;42.680;23.364;2023-04-27T02:27:52;94856.59;;;7.26;63.50
5691;BME280;2870;42.680;23.364;2023-04-27T02:30:19;94851.84;;;7.34;63.17
5691;BME280;2870;42.680;23.364;2023-04-27T02:32:47;94849.91;;;7.50;64.27
5691;BME280;2870;42.680;23.364;2023-04-27T02:35:14;94853.38;;;7.43;64.35
5691;BME280;2870;42.680;23.364;2023-04-27T02:37:40;94857.53;;;7.50;64.65
5691;BME280;2870;42.680;23.364;2023-04-27T02:40:08;94857.47;;;7.42;63.17
5691;BME280;2870;42.680;23.364;2023-04-27T02:42:35;94862.84;;;7.40;64.56
5691;BME280;2870;42.680;23.364;2023-04-27T02:45:05;94852.31;;;7.46;63.48
5691;BME280;2870;42.680;23.364;2023-04-27T02:47:32;94867.34;;;7.22;63.06
5691;BME280;2870;42.680;23.364;2023-04-27T02:50:00;94860.34;;;7.50;63.49
5691;BME280;2870;42.680;23.364;2023-04-27T02:52:28;94861.91;;;7.16;62.58
5691;BME280;2870;42.680;23.364;2023-04-27T02:54:55;94866.25;;;7.25;62.39
5691;BME280;2870;42.680;23.364;2023-04-27T02:57:22;94864.47;;;7.35;62.72
5691;BME280;2870;42.680;23.364;2023-04-27T02:59:49;94859.63;;;7.57;64.32
5691;BME280;2870;42.680;23.364;2023-04-27T03:02:15;94868.06;;;7.64;62.57
5691;BME280;2870;42.680;23.364;2023-04-27T03:04:42;94875.81;;;8.08;61.48
5691;BME280;2870;42.680;23.364;2023-04-27T03:07:10;94870.72;;;7.98;60.45
5691;BME280;2870;42.680;23.364;2023-04-27T03:09:37;94877.97;;;7.44;59.96
5691;BME280;2870;42.680;23.364;2023-04-27T03:12:04;94882.31;;;7.32;61.61
5691;BME280;2870;42.680;23.364;2023-04-27T03:14:31;94876.59;;;7.17;61.14
5691;BME280;2870;42.680;23.364;2023-04-27T03:16:58;94884.38;;;7.32;61.90
5691;BME280;2870;42.680;23.364;2023-04-27T03:19:25;94879.25;;;7.23;61.46
5691;BME280;2870;42.680;23.364;2023-04-27T03:21:52;94887.69;;;7.30;61.75
5691;BME280;2870;42.680;23.364;2023-04-27T03:24:20;94881.97;;;7.36;62.99
5691;BME280;2870;42.680;23.364;2023-04-27T03:26:49;94889.94;;;7.11;61.50
5691;BME280;2870;42.680;23.364;2023-04-27T03:29:16;94890.34;;;7.57;63.43
5691;BME280;2870;42.680;23.364;2023-04-27T03:31:43;94889.00;;;7.50;62.34
5691;BME280;2870;42.680;23.364;2023-04-27T03:34:10;94889.94;;;7.53;61.40
5691;BME280;2870;42.680;23.364;2023-04-27T03:36:37;94895.94;;;7.57;60.97
5691;BME280;2870;42.680;23.364;2023-04-27T03:39:03;94886.44;;;6.97;61.28
5691;BME280;2870;42.680;23.364;2023-04-27T03:41:32;94904.16;;;7.21;61.73
5691;BME280;2870;42.680;23.364;2023-04-27T03:43:59;94900.41;;;7.18;62.47
5691;BME280;2870;42.680;23.364;2023-04-27T03:46:26;94907.78;;;6.95;62.13
5691;BME280;2870;42.680;23.364;2023-04-27T03:48:53;94902.66;;;7.20;63.75
5691;BME280;2870;42.680;23.364;2023-04-27T03:51:19;94904.19;;;7.07;62.40
5691;BME280;2870;42.680;23.364;2023-04-27T03:53:46;94904.19;;;7.07;62.10
5691;BME280;2870;42.680;23.364;2023-04-27T03:56:13;94901.47;;;6.94;62.33
5691;BME280;2870;42.680;23.364;2023-04-27T03:58:41;94907.72;;;7.08;63.30
5691;BME280;2870;42.680;23.364;2023-04-27T04:01:08;94915.41;;;6.94;62.55
5691;BME280;2870;42.680;23.364;2023-04-27T04:03:35;94917.81;;;7.11;64.34
5691;BME280;2870;42.680;23.364;2023-04-27T04:06:02;94925.94;;;7.22;62.56
5691;BME280;2870;42.680;23.364;2023-04-27T04:08:29;94934.88;;;7.07;62.53
5691;BME280;2870;42.680;23.364;2023-04-27T04:10:57;94933.22;;;6.91;61.94
5691;BME280;2870;42.680;23.364;2023-04-27T04:13:24;94934.06;;;6.86;62.88
5691;BME280;2870;42.680;23.364;2023-04-27T04:16:01;94938.72;;;6.83;62.16
5691;BME280;2870;42.680;23.364;2023-04-27T04:18:27;94934.81;;;7.00;62.77
5691;BME280;2870;42.680;23.364;2023-04-27T04:20:54;94945.63;;;7.37;63.68
5691;BME280;2870;42.680;23.364;2023-04-27T04:23:21;94945.63;;;7.58;62.32
5691;BME280;2870;42.680;23.364;2023-04-27T04:25:48;94946.59;;;7.61;60.95
5691;BME280;2870;42.680;23.364;2023-04-27T04:28:14;94955.69;;;7.40;60.52
5691;BME280;2870;42.680;23.364;2023-04-27T04:30:41;94963.69;;;7.23;60.92
5691;BME280;2870;42.680;23.364;2023-04-27T04:33:10;94963.41;;;7.68;60.88
5691;BME280;2870;42.680;23.364;2023-04-27T04:35:37;94966.94;;;7.14;61.33
5691;BME280;2870;42.680;23.364;2023-04-27T04:38:04;94969.44;;;7.38;60.85
5691;BME280;2870;42.680;23.364;2023-04-27T04:40:30;94963.59;;;7.50;62.33
5691;BME280;2870;42.680;23.364;2023-04-27T04:42:57;94967.63;;;7.62;61.26
5691;BME280;2870;42.680;23.364;2023-04-27T04:45:24;94970.69;;;7.51;60.64
5691;BME280;2870;42.680;23.364;2023-04-27T04:47:51;94981.03;;;7.84;61.06
5691;BME280;2870;42.680;23.364;2023-04-27T04:50:20;94981.81;;;7.30;60.27
5691;BME280;2870;42.680;23.364;2023-04-27T04:52:47;94984.50;;;7.56;61.38
5691;BME280;2870;42.680;23.364;2023-04-27T04:55:14;94987.56;;;8.08;59.96
5691;BME280;2870;42.680;23.364;2023-04-27T04:57:41;94981.59;;;8.32;59.48
5691;BME280;2870;42.680;23.364;2023-04-27T05:00:09;94988.03;;;7.98;59.13
5691;BME280;2870;42.680;23.364;2023-04-27T05:02:38;94981.16;;;8.00;59.06
5691;BME280;2870;42.680;23.364;2023-04-27T05:05:05;94998.25;;;7.75;58.62
5691;BME280;2870;42.680;23.364;2023-04-27T05:07:33;94981.09;;;7.71;58.39
5691;BME280;2870;42.680;23.364;2023-04-27T05:10:00;95006.00;;;8.32;57.28
5691;BME280;2870;42.680;23.364;2023-04-27T05:12:27;95004.63;;;8.74;57.45
5691;BME280;2870;42.680;23.364;2023-04-27T05:14:55;95007.69;;;8.35;57.84
5691;BME280;2870;42.680;23.364;2023-04-27T05:17:22;95005.97;;;8.53;57.43
5691;BME280;2870;42.680;23.364;2023-04-27T05:19:49;95012.63;;;8.70;55.97
5691;BME280;2870;42.680;23.364;2023-04-27T05:22:16;95017.06;;;8.66;57.52
5691;BME280;2870;42.680;23.364;2023-04-27T05:24:44;95007.19;;;8.65;60.43
5691;BME280;2870;42.680;23.364;2023-04-27T05:27:11;95011.84;;;8.62;57.58
5691;BME280;2870;42.680;23.364;2023-04-27T05:29:38;95007.25;;;9.16;57.69
5691;BME280;2870;42.680;23.364;2023-04-27T05:32:05;95011.72;;;8.75;58.02
5691;BME280;2870;42.680;23.364;2023-04-27T05:34:32;95016.00;;;8.76;56.85
5691;BME280;2870;42.680;23.364;2023-04-27T05:36:59;95021.94;;;8.44;56.81
5691;BME280;2870;42.680;23.364;2023-04-27T05:39:25;95015.22;;;8.40;57.95
5691;BME280;2870;42.680;23.364;2023-04-27T05:41:54;95017.59;;;8.36;58.03
5691;BME280;2870;42.680;23.364;2023-04-27T05:44:20;95009.53;;;8.32;57.47
5691;BME280;2870;42.680;23.364;2023-04-27T05:46:49;95017.50;;;8.77;59.17
5691;BME280;2870;42.680;23.364;2023-04-27T05:49:16;95022.44;;;8.92;60.90
5691;BME280;2870;42.680;23.364;2023-04-27T05:51:43;95004.16;;;8.91;60.30
5691;BME280;2870;42.680;23.364;2023-04-27T05:54:10;95018.75;;;9.05;57.89
5691;BME280;2870;42.680;23.364;2023-04-27T05:56:37;95022.16;;;9.19;58.93
5691;BME280;2870;42.680;23.364;2023-04-27T05:59:05;95024.06;;;8.80;57.35
5691;BME280;2870;42.680;23.364;2023-04-27T06:01:32;95024.28;;;8.61;57.45
5691;BME280;2870;42.680;23.364;2023-04-27T06:03:59;95017.66;;;8.43;58.54
5691;BME280;2870;42.680;23.364;2023-04-27T06:06:26;95020.59;;;8.38;58.72
5691;BME280;2870;42.680;23.364;2023-04-27T06:08:56;95025.25;;;8.64;57.92
5691;BME280;2870;42.680;23.364;2023-04-27T06:11:23;95033.00;;;9.15;57.92
5691;BME280;2870;42.680;23.364;2023-04-27T06:13:50;95030.84;;;9.36;58.42
5691;BME280;2870;42.680;23.364;2023-04-27T06:16:18;95029.78;;;9.62;56.14
5691;BME280;2870;42.680;23.364;2023-04-27T06:18:45;95026.09;;;9.16;55.73
5691;BME280;2870;42.680;23.364;2023-04-27T06:21:12;95032.09;;;9.20;55.93
5691;BME280;2870;42.680;23.364;2023-04-27T06:23:38;95020.94;;;8.91;55.33
5691;BME280;2870;42.680;23.364;2023-04-27T06:26:06;95016.38;;;9.17;56.27
5691;BME280;2870;42.680;23.364;2023-04-27T06:28:32;95019.44;;;9.34;55.96
5691;BME280;2870;42.680;23.364;2023-04-27T06:30:59;95021.97;;;9.61;55.70
5691;BME280;2870;42.680;23.364;2023-04-27T06:33:27;95015.91;;;9.41;55.62
5691;BME280;2870;42.680;23.364;2023-04-27T06:35:54;95023.44;;;9.62;55.31
5691;BME280;2870;42.680;23.364;2023-04-27T06:38:21;95017.16;;;10.15;54.64
5691;BME280;2870;42.680;23.364;2023-04-27T06:40:50;95025.56;;;10.91;54.89
5691;BME280;2870;42.680;23.364;2023-04-27T06:43:17;95019.72;;;11.04;51.92
5691;BME280;2870;42.680;23.364;2023-04-27T06:45:44;95018.53;;;11.23;52.58
5691;BME280;2870;42.680;23.364;2023-04-27T06:48:11;95019.84;;;11.22;53.33
5691;BME280;2870;42.680;23.364;2023-04-27T06:50:39;95019.91;;;11.54;50.16
5691;BME280;2870;42.680;23.364;2023-04-27T06:53:06;95015.78;;;11.00;50.97
5691;BME280;2870;42.680;23.364;2023-04-27T06:55:32;95020.94;;;11.74;50.36
5691;BME280;2870;42.680;23.364;2023-04-27T06:57:59;95013.53;;;11.94;49.14
5691;BME280;2870;42.680;23.364;2023-04-27T07:00:26;95014.88;;;11.53;49.50
5691;BME280;2870;42.680;23.364;2023-04-27T07:02:53;95002.53;;;11.48;48.47
5691;BME280;2870;42.680;23.364;2023-04-27T07:05:20;95014.94;;;12.10;49.96
5691;BME280;2870;42.680;23.364;2023-04-27T07:07:48;95008.66;;;12.19;50.51
5691;BME280;2870;42.680;23.364;2023-04-27T07:10:15;95016.59;;;12.81;46.59
5691;BME280;2870;42.680;23.364;2023-04-27T07:12:42;95015.00;;;12.28;46.32
5691;BME280;2870;42.680;23.364;2023-04-27T07:15:09;94984.94;;;11.40;47.07
5691;BME280;2870;42.680;23.364;2023-04-27T07:17:36;95010.19;;;12.20;47.00
5691;BME280;2870;42.680;23.364;2023-04-27T07:20:04;95021.66;;;12.82;46.69
5691;BME280;2870;42.680;23.364;2023-04-27T07:22:32;95003.31;;;11.81;46.72
5691;BME280;2870;42.680;23.364;2023-04-27T07:25:01;95013.53;;;12.19;48.31
5691;BME280;2870;42.680;23.364;2023-04-27T07:27:28;95012.25;;;11.80;46.81
5691;BME280;2870;42.680;23.364;2023-04-27T07:29:56;95015.50;;;12.09;46.92
5691;BME280;2870;42.680;23.364;2023-04-27T07:32:23;95003.16;;;12.29;48.08
5691;BME280;2870;42.680;23.364;2023-04-27T07:34:49;95011.94;;;11.76;46.49
5691;BME280;2870;42.680;23.364;2023-04-27T07:37:17;95009.03;;;11.58;46.49
5691;BME280;2870;42.680;23.364;2023-04-27T07:39:44;95012.38;;;11.64;46.41
5691;BME280;2870;42.680;23.364;2023-04-27T07:42:12;95006.34;;;12.51;45.90
5691;BME280;2870;42.680;23.364;2023-04-27T07:44:39;95016.56;;;13.23;46.32
5691;BME280;2870;42.680;23.364;2023-04-27T07:47:07;95015.09;;;13.14;45.97
5691;BME280;2870;42.680;23.364;2023-04-27T07:49:34;95006.53;;;13.30;45.79
5691;BME280;2870;42.680;23.364;2023-04-27T07:52:01;95005.94;;;12.37;45.05
5691;BME280;2870;42.680;23.364;2023-04-27T07:54:28;95007.75;;;12.84;46.04
5691;BME280;2870;42.680;23.364;2023-04-27T07:56:55;95001.72;;;13.94;43.70
5691;BME280;2870;42.680;23.364;2023-04-27T07:59:23;95001.94;;;14.89;40.36
5691;BME280;2870;42.680;23.364;2023-04-27T08:01:50;95009.97;;;15.02;39.35
5691;BME280;2870;42.680;23.364;2023-04-27T08:04:17;95007.69;;;14.62;40.56
5691;BME280;2870;42.680;23.364;2023-04-27T08:06:44;95001.78;;;14.40;40.23
5691;BME280;2870;42.680;23.364;2023-04-27T08:09:11;95006.38;;;14.72;39.80
5691;BME280;2870;42.680;23.364;2023-04-27T08:11:38;95007.78;;;16.28;38.58
5691;BME280;2870;42.680;23.364;2023-04-27T08:14:05;95014.72;;;15.86;37.68
5691;BME280;2870;42.680;23.364;2023-04-27T08:16:39;95013.63;;;16.11;37.90
5691;BME280;2870;42.680;23.364;2023-04-27T08:19:06;95014.94;;;16.91;36.74
5691;BME280;2870;42.680;23.364;2023-04-27T08:21:33;95019.59;;;17.30;37.04
5691;BME280;2870;42.680;23.364;2023-04-27T08:24:01;95008.81;;;17.38;36.69
5691;BME280;2870;42.680;23.364;2023-04-27T08:26:27;95009.78;;;16.78;36.57
5691;BME280;2870;42.680;23.364;2023-04-27T08:28:54;94994.81;;;16.25;38.28
5691;BME280;2870;42.680;23.364;2023-04-27T08:31:21;95014.44;;;15.82;37.60
5691;BME280;2870;42.680;23.364;2023-04-27T08:33:50;95012.56;;;15.66;37.84
5691;BME280;2870;42.680;23.364;2023-04-27T08:36:17;95004.19;;;15.58;38.21
5691;BME280;2870;42.680;23.364;2023-04-27T08:38:44;95012.31;;;16.02;38.51
5691;BME280;2870;42.680;23.364;2023-04-27T08:41:17;95003.78;;;16.53;37.49
5691;BME280;2870;42.680;23.364;2023-04-27T08:43:44;95006.69;;;16.74;36.95
5691;BME280;2870;42.680;23.364;2023-04-27T08:46:10;95006.16;;;16.56;36.90
5691;BME280;2870;42.680;23.364;2023-04-27T08:48:37;95010.50;;;17.31;35.88
5691;BME280;2870;42.680;23.364;2023-04-27T08:51:09;95006.41;;;17.56;36.98
5691;BME280;2870;42.680;23.364;2023-04-27T08:53:36;95022.13;;;18.01;36.56
5691;BME280;2870;42.680;23.364;2023-04-27T08:56:03;95006.03;;;16.85;35.50
5691;BME280;2870;42.680;23.364;2023-04-27T08:58:37;95004.34;;;15.70;38.97
5691;BME280;2870;42.680;23.364;2023-04-27T09:01:04;95005.06;;;15.31;40.12
5691;BME280;2870;42.680;23.364;2023-04-27T09:03:32;95004.06;;;14.51;39.09
5691;BME280;2870;42.680;23.364;2023-04-27T09:05:59;95006.16;;;15.26;39.83
5691;BME280;2870;42.680;23.364;2023-04-27T09:08:27;94994.81;;;16.25;37.79
5691;BME280;2870;42.680;23.364;2023-04-27T09:10:54;95008.34;;;16.36;36.96
5691;BME280;2870;42.680;23.364;2023-04-27T09:13:21;94999.56;;;14.95;38.04
5691;BME280;2870;42.680;23.364;2023-04-27T09:15:49;94997.19;;;15.59;38.16
5691;BME280;2870;42.680;23.364;2023-04-27T09:18:17;94997.50;;;15.63;39.57
5691;BME280;2870;42.680;23.364;2023-04-27T09:20:46;95004.03;;;15.36;39.80
5691;BME280;2870;42.680;23.364;2023-04-27T09:23:24;94992.84;;;14.71;40.67
5691;BME280;2870;42.680;23.364;2023-04-27T09:25:53;94992.06;;;14.61;39.25
5691;BME280;2870;42.680;23.364;2023-04-27T09:28:20;94982.06;;;13.76;40.60
5691;BME280;2870;42.680;23.364;2023-04-27T09:30:51;94982.72;;;13.85;40.42
5691;BME280;2870;42.680;23.364;2023-04-27T09:33:23;94988.31;;;14.12;41.48
5691;BME280;2870;42.680;23.364;2023-04-27T09:35:50;94982.19;;;14.05;41.45
5691;BME280;2870;42.680;23.364;2023-04-27T09:38:18;94980.31;;;14.54;39.14
5691;BME280;2870;42.680;23.364;2023-04-27T09:40:45;94975.06;;;15.17;40.98
5691;BME280;2870;42.680;23.364;2023-04-27T09:43:13;94972.81;;;14.40;39.23
5691;BME280;2870;42.680;23.364;2023-04-27T09:45:40;94966.59;;;14.41;40.73
5691;BME280;2870;42.680;23.364;2023-04-27T09:48:08;94965.50;;;15.31;39.25
5691;BME280;2870;42.680;23.364;2023-04-27T09:50:35;94980.22;;;15.78;39.80
5691;BME280;2870;42.680;23.364;2023-04-27T09:53:05;94972.31;;;15.86;37.08
5691;BME280;2870;42.680;23.364;2023-04-27T09:55:36;94952.59;;;14.99;38.32
5691;BME280;2870;42.680;23.364;2023-04-27T10:01:04;94959.53;;;14.60;38.99
5691;BME280;2870;42.680;23.364;2023-04-27T10:03:41;94960.22;;;14.04;39.35
5691;BME280;2870;42.680;23.364;2023-04-27T10:06:52;94963.28;;;14.25;41.10
5691;BME280;2870;42.680;23.364;2023-04-27T10:09:20;94954.41;;;13.21;40.08
5691;BME280;2870;42.680;23.364;2023-04-27T10:11:49;94954.44;;;13.48;40.83
5691;BME280;2870;42.680;23.364;2023-04-27T10:14:18;94956.91;;;14.35;40.42
5691;BME280;2870;42.680;23.364;2023-04-27T10:16:51;94962.34;;;14.50;40.52
5691;BME280;2870;42.680;23.364;2023-04-27T10:19:18;94957.63;;;13.89;40.21
5691;BME280;2870;42.680;23.364;2023-04-27T10:21:53;94960.50;;;13.98;41.95
5691;BME280;2870;42.680;23.364;2023-04-27T10:24:31;94953.94;;;14.89;38.88
5691;BME280;2870;42.680;23.364;2023-04-27T10:27:01;94957.47;;;14.60;38.41
5691;BME280;2870;42.680;23.364;2023-04-27T10:29:40;94958.50;;;14.74;38.19
5691;BME280;2870;42.680;23.364;2023-04-27T10:32:09;94953.75;;;14.67;38.92
5691;BME280;2870;42.680;23.364;2023-04-27T10:34:38;94949.63;;;15.07;37.39
5691;BME280;2870;42.680;23.364;2023-04-27T10:37:07;94958.09;;;15.26;37.09
5691;BME280;2870;42.680;23.364;2023-04-27T10:39:35;94937.28;;;15.12;39.00
5691;BME280;2870;42.680;23.364;2023-04-27T10:42:04;94956.03;;;15.17;37.87
5691;BME280;2870;42.680;23.364;2023-04-27T10:44:32;94954.38;;;15.33;38.96
5691;BME280;2870;42.680;23.364;2023-04-27T10:47:00;94952.00;;;14.81;37.16
5691;BME280;2870;42.680;23.364;2023-04-27T10:49:29;94954.19;;;14.54;37.69
5691;BME280;2870;42.680;23.364;2023-04-27T10:51:57;94950.38;;;14.88;37.91
5691;BME280;2870;42.680;23.364;2023-04-27T10:54:26;94944.41;;;15.23;37.31
5691;BME280;2870;42.680;23.364;2023-04-27T10:57:00;94961.66;;;14.88;36.50
5691;BME280;2870;42.680;23.364;2023-04-27T10:59:28;94951.88;;;14.99;37.47
5691;BME280;2870;42.680;23.364;2023-04-27T11:01:55;94921.75;;;14.36;37.41
5691;BME280;2870;42.680;23.364;2023-04-27T11:04:22;94942.50;;;14.87;38.32
5691;BME280;2870;42.680;23.364;2023-04-27T11:06:51;94931.50;;;14.35;37.57
5691;BME280;2870;42.680;23.364;2023-04-27T11:09:24;94937.38;;;14.56;38.18
5691;BME280;2870;42.680;23.364;2023-04-27T11:11:52;94937.81;;;14.06;37.84
5691;BME280;2870;42.680;23.364;2023-04-27T11:14:19;94942.19;;;14.26;40.71
5691;BME280;2870;42.680;23.364;2023-04-27T11:16:47;94944.25;;;14.92;37.79
5691;BME280;2870;42.680;23.364;2023-04-27T11:19:13;94941.78;;;14.40;38.09
5691;BME280;2870;42.680;23.364;2023-04-27T11:21:41;94931.50;;;14.25;38.96
5691;BME280;2870;42.680;23.364;2023-04-27T11:24:09;94952.59;;;14.24;38.19
5691;BME280;2870;42.680;23.364;2023-04-27T11:26:36;94945.03;;;14.26;39.02
5691;BME280;2870;42.680;23.364;2023-04-27T11:29:04;94954.03;;;14.15;39.76
5691;BME280;2870;42.680;23.364;2023-04-27T11:31:39;94957.41;;;14.04;38.59
5691;BME280;2870;42.680;23.364;2023-04-27T11:34:06;94958.69;;;13.93;38.14
5691;BME280;2870;42.680;23.364;2023-04-27T11:36:33;94950.41;;;14.42;38.09
5691;BME280;2870;42.680;23.364;2023-04-27T11:39:00;94949.81;;;13.97;38.49
5691;BME280;2870;42.680;23.364;2023-04-27T11:41:35;94950.38;;;14.32;39.16
5691;BME280;2870;42.680;23.364;2023-04-27T11:44:07;94944.09;;;14.80;38.04
5691;BME280;2870;42.680;23.364;2023-04-27T11:46:35;94952.56;;;14.61;38.26
5691;BME280;2870;42.680;23.364;2023-04-27T11:49:02;94966.97;;;14.65;37.44
5691;BME280;2870;42.680;23.364;2023-04-27T11:51:30;94947.97;;;14.84;37.98
5691;BME280;2870;42.680;23.364;2023-04-27T11:54:00;94965.53;;;14.00;37.69
5691;BME280;2870;42.680;23.364;2023-04-27T11:56:36;94958.53;;;14.28;38.26
5691;BME280;2870;42.680;23.364;2023-04-27T11:59:04;94962.78;;;14.56;38.55
5691;BME280;2870;42.680;23.364;2023-04-27T12:01:32;94950.91;;;14.57;38.19
5691;BME280;2870;42.680;23.364;2023-04-27T12:03:59;94956.75;;;14.89;37.01
5691;BME280;2870;42.680;23.364;2023-04-27T12:06:27;94958.84;;;15.27;37.21
5691;BME280;2870;42.680;23.364;2023-04-27T12:08:55;94966.69;;;14.80;37.93
5691;BME280;2870;42.680;23.364;2023-04-27T12:11:23;94967.53;;;14.17;37.62
5691;BME280;2870;42.680;23.364;2023-04-27T12:13:51;94968.56;;;14.12;37.86
5691;BME280;2870;42.680;23.364;2023-04-27T12:16:18;94958.22;;;13.87;38.58
5691;BME280;2870;42.680;23.364;2023-04-27T12:18:46;94958.56;;;13.91;38.87
5691;BME280;2870;42.680;23.364;2023-04-27T12:21:13;94963.06;;;13.77;38.74
5691;BME280;2870;42.680;23.364;2023-04-27T12:23:40;94964.31;;;14.20;40.44
5691;BME280;2870;42.680;23.364;2023-04-27T12:26:07;94975.47;;;14.28;38.94
5691;BME280;2870;42.680;23.364;2023-04-27T12:28:34;94969.19;;;14.20;37.60
5691;BME280;2870;42.680;23.364;2023-04-27T12:31:04;94951.38;;;14.17;40.13
5691;BME280;2870;42.680;23.364;2023-04-27T12:33:31;94968.91;;;14.72;38.13
5691;BME280;2870;42.680;23.364;2023-04-27T12:35:57;94971.03;;;15.10;37.46
5691;BME280;2870;42.680;23.364;2023-04-27T12:38:25;94952.75;;;14.26;36.62
5691;BME280;2870;42.680;23.364;2023-04-27T12:40:52;94958.28;;;14.43;37.65
5691;BME280;2870;42.680;23.364;2023-04-27T12:43:19;94967.00;;;14.84;38.11
5691;BME280;2870;42.680;23.364;2023-04-27T12:45:46;94973.84;;;15.39;36.68
5691;BME280;2870;42.680;23.364;2023-04-27T12:48:14;94967.03;;;14.94;38.63
5691;BME280;2870;42.680;23.364;2023-04-27T12:50:40;94966.88;;;15.01;39.65
5691;BME280;2870;42.680;23.364;2023-04-27T12:53:07;94973.13;;;15.09;38.53
5691;BME280;2870;42.680;23.364;2023-04-27T12:55:34;94966.75;;;14.43;37.90
5691;BME280;2870;42.680;23.364;2023-04-27T12:58:02;94972.06;;;14.29;37.99
5691;BME280;2870;42.680;23.364;2023-04-27T13:00:29;94965.72;;;14.02;38.39
5691;BME280;2870;42.680;23.364;2023-04-27T13:02:56;94967.88;;;14.77;38.13
5691;BME280;2870;42.680;23.364;2023-04-27T13:05:25;94952.88;;;14.74;38.68
5691;BME280;2870;42.680;23.364;2023-04-27T13:07:52;94964.63;;;15.19;37.48
5691;BME280;2870;42.680;23.364;2023-04-27T13:10:18;94964.75;;;15.79;37.20
5691;BME280;2870;42.680;23.364;2023-04-27T13:12:45;94966.44;;;16.04;35.79
5691;BME280;2870;42.680;23.364;2023-04-27T13:15:12;94960.22;;;15.96;36.54
5691;BME280;2870;42.680;23.364;2023-04-27T13:17:39;94969.53;;;15.67;35.80
5691;BME280;2870;42.680;23.364;2023-04-27T13:20:07;94961.50;;;14.86;35.82
5691;BME280;2870;42.680;23.364;2023-04-27T13:22:35;94950.16;;;14.57;37.63